sensor_id;sensor_type;location;lat;lon;timestamp;temperature;humidity
2190;DHT22;1101;51.056;7.262;2023-07-20T00:01:12;17.50;74.80
2190;DHT22;1101;51.056;7.262;2023-07-20T00:03:39;17.50;74.90
2190;DHT22;1101;51.056;7.262;2023-07-20T00:06:08;17.50;75.00
2190;DHT22;1101;51.056;7.262;2023-07-20T00:08:36;17.40;75.00
2190;DHT22;1101;51.056;7.262;2023-07-20T00:11:04;17.40;75.20
2190;DHT22;1101;51.056;7.262;2023-07-20T00:13:32;17.30;75.10
2190;DHT22;1101;51.056;7.262;2023-07-20T00:15:59;17.30;75.20
2190;DHT22;1101;51.056;7.262;2023-07-20T00:18:28;17.20;75.20
2190;DHT22;1101;51.056;7.262;2023-07-20T00:20:56;17.20;75.30
2190;DHT22;1101;51.056;7.262;2023-07-20T00:23:26;17.20;75.40
2190;DHT22;1101;51.056;7.262;2023-07-20T00:25:54;17.10;75.40
2190;DHT22;1101;51.056;7.262;2023-07-20T00:28:22;17.00;75.30
2190;DHT22;1101;51.056;7.262;2023-07-20T00:30:50;17.00;75.40
2190;DHT22;1101;51.056;7.262;2023-07-20T00:33:18;17.00;75.40
2190;DHT22;1101;51.056;7.262;2023-07-20T00:35:47;16.90;75.50
2190;DHT22;1101;51.056;7.262;2023-07-20T00:38:15;16.90;75.60
2190;DHT22;1101;51.056;7.262;2023-07-20T00:40:43;16.90;75.70
2190;DHT22;1101;51.056;7.262;2023-07-20T00:43:10;16.90;75.80
2190;DHT22;1101;51.056;7.262;2023-07-20T00:45:38;16.90;75.90
2190;DHT22;1101;51.056;7.262;2023-07-20T00:48:06;16.90;75.90
2190;DHT22;1101;51.056;7.262;2023-07-20T00:50:35;16.80;75.90
2190;DHT22;1101;51.056;7.262;2023-07-20T00:53:05;16.80;75.90
2190;DHT22;1101;51.056;7.262;2023-07-20T00:55:34;16.80;76.00
2190;DHT22;1101;51.056;7.262;2023-07-20T00:58:02;16.80;76.10
2190;DHT22;1101;51.056;7.262;2023-07-20T01:00:29;16.80;76.10
2190;DHT22;1101;51.056;7.262;2023-07-20T01:02:57;16.80;76.10
2190;DHT22;1101;51.056;7.262;2023-07-20T01:05:34;16.70;76.10
2190;DHT22;1101;51.056;7.262;2023-07-20T01:08:13;16.70;76.30
2190;DHT22;1101;51.056;7.262;2023-07-20T01:10:46;16.70;76.30
2190;DHT22;1101;51.056;7.262;2023-07-20T01:13:18;16.70;76.40
2190;DHT22;1101;51.056;7.262;2023-07-20T01:15:49;16.70;76.50
2190;DHT22;1101;51.056;7.262;2023-07-20T01:18:18;16.60;76.50
2190;DHT22;1101;51.056;7.262;2023-07-20T01:20:46;16.60;76.50
2190;DHT22;1101;51.056;7.262;2023-07-20T01:26:49;16.60;76.60
2190;DHT22;1101;51.056;7.262;2023-07-20T01:29:28;16.50;76.70
2190;DHT22;1101;51.056;7.262;2023-07-20T01:32:02;16.50;76.70
2190;DHT22;1101;51.056;7.262;2023-07-20T01:34:34;16.50;76.80
2190;DHT22;1101;51.056;7.262;2023-07-20T01:37:03;16.50;76.80
2190;DHT22;1101;51.056;7.262;2023-07-20T01:39:33;16.50;76.90
2190;DHT22;1101;51.056;7.262;2023-07-20T01:42:01;16.50;77.00
2190;DHT22;1101;51.056;7.262;2023-07-20T01:44:28;16.50;77.00
2190;DHT22;1101;51.056;7.262;2023-07-20T01:46:56;16.50;77.00
2190;DHT22;1101;51.056;7.262;2023-07-20T01:49:26;16.50;77.10
2190;DHT22;1101;51.056;7.262;2023-07-20T01:51:53;16.40;77.00
2190;DHT22;1101;51.056;7.262;2023-07-20T01:54:21;16.40;77.10
2190;DHT22;1101;51.056;7.262;2023-07-20T01:56:49;16.40;77.20
2190;DHT22;1101;51.056;7.262;2023-07-20T01:59:17;16.40;77.30
2190;DHT22;1101;51.056;7.262;2023-07-20T02:01:45;16.40;77.30
2190;DHT22;1101;51.056;7.262;2023-07-20T02:04:12;16.30;77.30
2190;DHT22;1101;51.056;7.262;2023-07-20T02:06:42;16.30;77.30
2190;DHT22;1101;51.056;7.262;2023-07-20T02:09:10;16.30;77.40
2190;DHT22;1101;51.056;7.262;2023-07-20T02:11:37;16.30;77.50
2190;DHT22;1101;51.056;7.262;2023-07-20T02:14:05;16.30;77.50
2190;DHT22;1101;51.056;7.262;2023-07-20T02:16:33;16.30;77.60
2190;DHT22;1101;51.056;7.262;2023-07-20T02:19:01;16.30;77.60
2190;DHT22;1101;51.056;7.262;2023-07-20T02:21:30;16.30;77.60
2190;DHT22;1101;51.056;7.262;2023-07-20T02:23:59;16.30;77.70
2190;DHT22;1101;51.056;7.262;2023-07-20T02:26:27;16.30;77.70
2190;DHT22;1101;51.056;7.262;2023-07-20T02:28:54;16.30;77.80
2190;DHT22;1101;51.056;7.262;2023-07-20T02:31:22;16.30;77.80
2190;DHT22;1101;51.056;7.262;2023-07-20T02:33:50;16.30;77.90
2190;DHT22;1101;51.056;7.262;2023-07-20T02:36:18;16.30;78.00
2190;DHT22;1101;51.056;7.262;2023-07-20T02:38:46;16.20;78.00
2190;DHT22;1101;51.056;7.262;2023-07-20T02:41:15;16.20;78.10
2190;DHT22;1101;51.056;7.262;2023-07-20T02:43:43;16.20;78.10
2190;DHT22;1101;51.056;7.262;2023-07-20T02:46:11;16.30;78.20
2190;DHT22;1101;51.056;7.262;2023-07-20T02:48:38;16.20;78.20
2190;DHT22;1101;51.056;7.262;2023-07-20T02:51:06;16.20;78.20
2190;DHT22;1101;51.056;7.262;2023-07-20T02:53:35;16.30;78.30
2190;DHT22;1101;51.056;7.262;2023-07-20T02:56:04;16.30;78.30
2190;DHT22;1101;51.056;7.262;2023-07-20T02:58:34;16.20;78.30
2190;DHT22;1101;51.056;7.262;2023-07-20T03:01:03;16.20;78.30
2190;DHT22;1101;51.056;7.262;2023-07-20T03:03:31;16.20;78.40
2190;DHT22;1101;51.056;7.262;2023-07-20T03:06:05;16.10;78.30
2190;DHT22;1101;51.056;7.262;2023-07-20T03:08:35;16.10;78.40
2190;DHT22;1101;51.056;7.262;2023-07-20T03:11:03;16.10;78.40
2190;DHT22;1101;51.056;7.262;2023-07-20T03:13:32;16.10;78.50
2190;DHT22;1101;51.056;7.262;2023-07-20T03:16:00;16.10;78.60
2190;DHT22;1101;51.056;7.262;2023-07-20T03:18:28;16.00;78.60
2190;DHT22;1101;51.056;7.262;2023-07-20T03:20:56;16.00;78.60
2190;DHT22;1101;51.056;7.262;2023-07-20T03:23:23;16.00;78.80
2190;DHT22;1101;51.056;7.262;2023-07-20T03:25:52;16.00;78.90
2190;DHT22;1101;51.056;7.262;2023-07-20T03:28:21;16.00;78.90
2190;DHT22;1101;51.056;7.262;2023-07-20T03:30:54;15.90;78.90
2190;DHT22;1101;51.056;7.262;2023-07-20T03:33:22;15.90;78.90
2190;DHT22;1101;51.056;7.262;2023-07-20T03:35:50;15.90;78.90
2190;DHT22;1101;51.056;7.262;2023-07-20T03:38:19;15.90;79.00
2190;DHT22;1101;51.056;7.262;2023-07-20T03:40:50;15.90;79.10
2190;DHT22;1101;51.056;7.262;2023-07-20T03:43:18;15.90;79.10
2190;DHT22;1101;51.056;7.262;2023-07-20T03:45:47;15.90;79.20
2190;DHT22;1101;51.056;7.262;2023-07-20T03:48:17;15.90;79.30
2190;DHT22;1101;51.056;7.262;2023-07-20T03:50:46;15.90;79.40
2190;DHT22;1101;51.056;7.262;2023-07-20T03:53:14;15.90;79.50
2190;DHT22;1101;51.056;7.262;2023-07-20T03:55:44;15.90;79.50
2190;DHT22;1101;51.056;7.262;2023-07-20T03:58:12;15.90;79.60
2190;DHT22;1101;51.056;7.262;2023-07-20T04:00:44;15.90;79.70
2190;DHT22;1101;51.056;7.262;2023-07-20T04:03:12;15.90;79.70
2190;DHT22;1101;51.056;7.262;2023-07-20T04:05:41;16.00;79.90
2190;DHT22;1101;51.056;7.262;2023-07-20T04:08:09;16.00;79.90
2190;DHT22;1101;51.056;7.262;2023-07-20T04:10:38;16.00;79.90
2190;DHT22;1101;51.056;7.262;2023-07-20T04:13:06;16.00;80.10
2190;DHT22;1101;51.056;7.262;2023-07-20T04:15:34;16.00;80.00
2190;DHT22;1101;51.056;7.262;2023-07-20T04:18:02;16.00;80.10
2190;DHT22;1101;51.056;7.262;2023-07-20T04:20:30;16.00;80.10
2190;DHT22;1101;51.056;7.262;2023-07-20T04:22:59;16.00;80.10
2190;DHT22;1101;51.056;7.262;2023-07-20T04:25:27;16.00;80.20
2190;DHT22;1101;51.056;7.262;2023-07-20T04:27:55;16.10;80.50
2190;DHT22;1101;51.056;7.262;2023-07-20T04:30:23;16.10;80.70
2190;DHT22;1101;51.056;7.262;2023-07-20T04:32:50;16.10;80.50
2190;DHT22;1101;51.056;7.262;2023-07-20T04:35:45;16.10;80.50
2190;DHT22;1101;51.056;7.262;2023-07-20T04:38:15;16.10;80.60
2190;DHT22;1101;51.056;7.262;2023-07-20T04:40:44;16.10;80.60
2190;DHT22;1101;51.056;7.262;2023-07-20T04:43:12;16.10;80.50
2190;DHT22;1101;51.056;7.262;2023-07-20T04:45:41;16.20;80.90
2190;DHT22;1101;51.056;7.262;2023-07-20T04:48:09;16.20;80.90
2190;DHT22;1101;51.056;7.262;2023-07-20T04:50:38;16.10;81.00
2190;DHT22;1101;51.056;7.262;2023-07-20T04:53:06;16.20;81.20
2190;DHT22;1101;51.056;7.262;2023-07-20T04:55:35;16.20;81.00
2190;DHT22;1101;51.056;7.262;2023-07-20T04:58:03;16.20;81.20
2190;DHT22;1101;51.056;7.262;2023-07-20T05:00:32;16.20;81.80
2190;DHT22;1101;51.056;7.262;2023-07-20T05:03:00;16.30;81.10
2190;DHT22;1101;51.056;7.262;2023-07-20T05:05:28;16.30;81.10
2190;DHT22;1101;51.056;7.262;2023-07-20T05:07:56;16.30;81.10
2190;DHT22;1101;51.056;7.262;2023-07-20T05:10:24;16.40;81.20
2190;DHT22;1101;51.056;7.262;2023-07-20T05:12:53;16.40;81.20
2190;DHT22;1101;51.056;7.262;2023-07-20T05:15:21;16.40;81.00
2190;DHT22;1101;51.056;7.262;2023-07-20T05:17:49;16.40;81.20
2190;DHT22;1101;51.056;7.262;2023-07-20T05:20:17;16.40;81.60
2190;DHT22;1101;51.056;7.262;2023-07-20T05:22:45;16.40;81.20
2190;DHT22;1101;51.056;7.262;2023-07-20T05:25:13;16.40;81.30
2190;DHT22;1101;51.056;7.262;2023-07-20T05:27:41;16.40;81.30
2190;DHT22;1101;51.056;7.262;2023-07-20T05:30:11;16.40;81.20
2190;DHT22;1101;51.056;7.262;2023-07-20T05:32:38;16.40;81.20
2190;DHT22;1101;51.056;7.262;2023-07-20T05:35:08;16.40;81.40
2190;DHT22;1101;51.056;7.262;2023-07-20T05:37:38;16.40;81.00
2190;DHT22;1101;51.056;7.262;2023-07-20T05:40:06;16.40;81.20
2190;DHT22;1101;51.056;7.262;2023-07-20T05:42:36;16.40;81.10
2190;DHT22;1101;51.056;7.262;2023-07-20T05:45:05;16.50;81.30
2190;DHT22;1101;51.056;7.262;2023-07-20T05:47:35;16.50;81.30
2190;DHT22;1101;51.056;7.262;2023-07-20T05:50:03;16.60;81.00
2190;DHT22;1101;51.056;7.262;2023-07-20T05:52:31;16.70;81.10
2190;DHT22;1101;51.056;7.262;2023-07-20T05:54:59;16.70;81.00
2190;DHT22;1101;51.056;7.262;2023-07-20T05:57:27;16.80;82.10
2190;DHT22;1101;51.056;7.262;2023-07-20T05:59:55;16.80;81.70
2190;DHT22;1101;51.056;7.262;2023-07-20T06:02:22;16.80;81.50
2190;DHT22;1101;51.056;7.262;2023-07-20T06:04:52;16.80;81.50
2190;DHT22;1101;51.056;7.262;2023-07-20T06:07:21;16.80;81.40
2190;DHT22;1101;51.056;7.262;2023-07-20T06:09:49;16.80;81.60
2190;DHT22;1101;51.056;7.262;2023-07-20T06:12:16;16.90;81.60
2190;DHT22;1101;51.056;7.262;2023-07-20T06:14:44;16.90;81.50
2190;DHT22;1101;51.056;7.262;2023-07-20T06:17:13;16.90;81.70
2190;DHT22;1101;51.056;7.262;2023-07-20T06:19:41;16.90;81.30
2190;DHT22;1101;51.056;7.262;2023-07-20T06:22:10;17.00;81.20
2190;DHT22;1101;51.056;7.262;2023-07-20T06:24:38;17.00;80.90
2190;DHT22;1101;51.056;7.262;2023-07-20T06:27:06;17.10;80.90
2190;DHT22;1101;51.056;7.262;2023-07-20T06:29:33;17.10;80.70
2190;DHT22;1101;51.056;7.262;2023-07-20T06:32:01;17.30;80.90
2190;DHT22;1101;51.056;7.262;2023-07-20T06:34:29;17.30;80.80
2190;DHT22;1101;51.056;7.262;2023-07-20T06:36:57;17.30;80.80
2190;DHT22;1101;51.056;7.262;2023-07-20T06:39:26;17.40;80.90
2190;DHT22;1101;51.056;7.262;2023-07-20T06:41:57;17.40;80.90
2190;DHT22;1101;51.056;7.262;2023-07-20T06:44:25;17.40;81.10
2190;DHT22;1101;51.056;7.262;2023-07-20T06:46:52;17.40;81.20
2190;DHT22;1101;51.056;7.262;2023-07-20T06:49:27;17.40;81.70
2190;DHT22;1101;51.056;7.262;2023-07-20T06:51:56;17.40;81.20
2190;DHT22;1101;51.056;7.262;2023-07-20T06:54:25;17.40;81.30
2190;DHT22;1101;51.056;7.262;2023-07-20T06:56:53;17.40;81.40
2190;DHT22;1101;51.056;7.262;2023-07-20T06:59:24;17.40;81.50
2190;DHT22;1101;51.056;7.262;2023-07-20T07:01:52;17.40;81.30
2190;DHT22;1101;51.056;7.262;2023-07-20T07:04:20;17.40;81.50
2190;DHT22;1101;51.056;7.262;2023-07-20T07:06:47;17.50;81.20
2190;DHT22;1101;51.056;7.262;2023-07-20T07:09:16;17.50;80.90
2190;DHT22;1101;51.056;7.262;2023-07-20T07:11:45;17.60;80.70
2190;DHT22;1101;51.056;7.262;2023-07-20T07:14:13;17.70;80.50
2190;DHT22;1101;51.056;7.262;2023-07-20T07:16:42;17.80;80.40
2190;DHT22;1101;51.056;7.262;2023-07-20T07:19:10;17.90;80.20
2190;DHT22;1101;51.056;7.262;2023-07-20T07:21:37;18.00;80.20
2190;DHT22;1101;51.056;7.262;2023-07-20T07:24:06;18.00;80.20
2190;DHT22;1101;51.056;7.262;2023-07-20T07:26:34;18.00;80.20
2190;DHT22;1101;51.056;7.262;2023-07-20T07:29:03;18.00;80.40
2190;DHT22;1101;51.056;7.262;2023-07-20T07:31:33;17.90;80.60
2190;DHT22;1101;51.056;7.262;2023-07-20T07:34:02;17.80;80.60
2190;DHT22;1101;51.056;7.262;2023-07-20T07:36:30;17.80;80.80
2190;DHT22;1101;51.056;7.262;2023-07-20T07:38:57;17.80;80.90
2190;DHT22;1101;51.056;7.262;2023-07-20T07:41:28;17.80;81.00
2190;DHT22;1101;51.056;7.262;2023-07-20T07:43:56;17.80;80.70
2190;DHT22;1101;51.056;7.262;2023-07-20T07:46:26;17.90;80.70
2190;DHT22;1101;51.056;7.262;2023-07-20T07:48:54;18.00;80.50
2190;DHT22;1101;51.056;7.262;2023-07-20T07:51:21;18.10;80.30
2190;DHT22;1101;51.056;7.262;2023-07-20T07:53:49;18.30;80.20
2190;DHT22;1101;51.056;7.262;2023-07-20T07:56:17;18.60;81.00
2190;DHT22;1101;51.056;7.262;2023-07-20T07:58:50;18.80;80.00
2190;DHT22;1101;51.056;7.262;2023-07-20T08:01:18;18.80;79.60
2190;DHT22;1101;51.056;7.262;2023-07-20T08:03:47;18.90;79.60
2190;DHT22;1101;51.056;7.262;2023-07-20T08:06:15;18.90;79.50
2190;DHT22;1101;51.056;7.262;2023-07-20T08:08:43;18.90;79.40
2190;DHT22;1101;51.056;7.262;2023-07-20T08:11:11;18.90;79.40
2190;DHT22;1101;51.056;7.262;2023-07-20T08:13:41;18.90;80.00
2190;DHT22;1101;51.056;7.262;2023-07-20T08:16:09;18.90;79.30
2190;DHT22;1101;51.056;7.262;2023-07-20T08:18:37;19.00;79.40
2190;DHT22;1101;51.056;7.262;2023-07-20T08:21:06;18.90;79.20
2190;DHT22;1101;51.056;7.262;2023-07-20T08:23:34;18.90;79.40
2190;DHT22;1101;51.056;7.262;2023-07-20T08:26:03;18.80;79.50
2190;DHT22;1101;51.056;7.262;2023-07-20T08:28:31;18.70;79.50
2190;DHT22;1101;51.056;7.262;2023-07-20T08:30:58;18.60;79.60
2190;DHT22;1101;51.056;7.262;2023-07-20T08:33:27;18.60;79.80
2190;DHT22;1101;51.056;7.262;2023-07-20T08:35:56;18.70;79.70
2190;DHT22;1101;51.056;7.262;2023-07-20T08:38:25;19.00;79.70
2190;DHT22;1101;51.056;7.262;2023-07-20T08:40:53;19.30;79.30
2190;DHT22;1101;51.056;7.262;2023-07-20T08:43:23;19.50;79.10
2190;DHT22;1101;51.056;7.262;2023-07-20T08:45:53;19.80;78.80
2190;DHT22;1101;51.056;7.262;2023-07-20T08:48:21;19.90;78.40
2190;DHT22;1101;51.056;7.262;2023-07-20T08:50:51;19.90;78.20
2190;DHT22;1101;51.056;7.262;2023-07-20T08:53:20;19.80;78.20
2190;DHT22;1101;51.056;7.262;2023-07-20T08:55:51;19.70;78.00
2190;DHT22;1101;51.056;7.262;2023-07-20T08:58:19;19.60;77.80
2190;DHT22;1101;51.056;7.262;2023-07-20T09:00:48;19.50;77.80
2190;DHT22;1101;51.056;7.262;2023-07-20T09:03:18;19.40;78.00
2190;DHT22;1101;51.056;7.262;2023-07-20T09:05:46;19.40;78.30
2190;DHT22;1101;51.056;7.262;2023-07-20T09:08:14;19.60;78.30
2190;DHT22;1101;51.056;7.262;2023-07-20T09:10:42;19.80;78.10
2190;DHT22;1101;51.056;7.262;2023-07-20T09:13:14;20.10;77.90
2190;DHT22;1101;51.056;7.262;2023-07-20T09:15:46;20.30;77.50
2190;DHT22;1101;51.056;7.262;2023-07-20T09:18:24;20.50;77.30
2190;DHT22;1101;51.056;7.262;2023-07-20T09:20:52;20.70;77.30
2190;DHT22;1101;51.056;7.262;2023-07-20T09:23:20;20.80;76.80
2190;DHT22;1101;51.056;7.262;2023-07-20T09:25:57;20.90;76.60
2190;DHT22;1101;51.056;7.262;2023-07-20T09:28:27;21.10;76.70
2190;DHT22;1101;51.056;7.262;2023-07-20T09:30:55;21.30;76.50
2190;DHT22;1101;51.056;7.262;2023-07-20T09:33:25;21.50;76.20
2190;DHT22;1101;51.056;7.262;2023-07-20T09:35:54;21.70;75.90
2190;DHT22;1101;51.056;7.262;2023-07-20T09:38:28;21.70;75.40
2190;DHT22;1101;51.056;7.262;2023-07-20T09:41:15;21.70;75.40
2190;DHT22;1101;51.056;7.262;2023-07-20T09:43:50;21.80;75.60
2190;DHT22;1101;51.056;7.262;2023-07-20T09:46:17;21.90;75.30
2190;DHT22;1101;51.056;7.262;2023-07-20T09:48:53;22.10;75.10
2190;DHT22;1101;51.056;7.262;2023-07-20T09:51:24;22.10;74.80
2190;DHT22;1101;51.056;7.262;2023-07-20T09:53:53;22.10;74.80
2190;DHT22;1101;51.056;7.262;2023-07-20T09:56:21;22.10;74.40
2190;DHT22;1101;51.056;7.262;2023-07-20T09:58:52;22.00;74.30
2190;DHT22;1101;51.056;7.262;2023-07-20T10:01:21;22.00;74.60
2190;DHT22;1101;51.056;7.262;2023-07-20T10:03:54;22.10;74.50
2190;DHT22;1101;51.056;7.262;2023-07-20T10:06:23;22.00;74.00
2190;DHT22;1101;51.056;7.262;2023-07-20T10:08:53;21.90;74.10
2190;DHT22;1101;51.056;7.262;2023-07-20T10:11:24;21.90;74.00
2190;DHT22;1101;51.056;7.262;2023-07-20T10:13:56;21.90;73.80
2190;DHT22;1101;51.056;7.262;2023-07-20T10:16:29;21.90;74.00
2190;DHT22;1101;51.056;7.262;2023-07-20T10:19:03;22.00;73.90
2190;DHT22;1101;51.056;7.262;2023-07-20T10:21:47;22.10;73.20
2190;DHT22;1101;51.056;7.262;2023-07-20T10:24:23;22.00;72.90
2190;DHT22;1101;51.056;7.262;2023-07-20T10:26:51;22.10;73.30
2190;DHT22;1101;51.056;7.262;2023-07-20T10:29:20;22.20;73.50
2190;DHT22;1101;51.056;7.262;2023-07-20T10:31:49;22.50;73.50
2190;DHT22;1101;51.056;7.262;2023-07-20T10:34:20;22.80;73.20
2190;DHT22;1101;51.056;7.262;2023-07-20T10:36:48;22.90;72.70
2190;DHT22;1101;51.056;7.262;2023-07-20T10:39:25;23.10;73.00
2190;DHT22;1101;51.056;7.262;2023-07-20T10:42:01;23.40;72.70
2190;DHT22;1101;51.056;7.262;2023-07-20T10:44:31;23.60;72.30
2190;DHT22;1101;51.056;7.262;2023-07-20T10:46:59;23.60;71.80
2190;DHT22;1101;51.056;7.262;2023-07-20T10:49:29;23.50;70.70
2190;DHT22;1101;51.056;7.262;2023-07-20T10:52:04;23.30;71.10
2190;DHT22;1101;51.056;7.262;2023-07-20T10:54:47;23.20;71.20
2190;DHT22;1101;51.056;7.262;2023-07-20T10:57:24;23.20;71.80
2190;DHT22;1101;51.056;7.262;2023-07-20T11:00:07;23.30;71.30
2190;DHT22;1101;51.056;7.262;2023-07-20T11:02:42;23.40;71.40
2190;DHT22;1101;51.056;7.262;2023-07-20T11:05:32;23.30;70.70
2190;DHT22;1101;51.056;7.262;2023-07-20T11:08:00;23.20;70.40
2190;DHT22;1101;51.056;7.262;2023-07-20T11:13:57;22.90;70.10
2190;DHT22;1101;51.056;7.262;2023-07-20T11:16:35;22.70;70.10
2190;DHT22;1101;51.056;7.262;2023-07-20T11:19:04;22.60;70.00
2190;DHT22;1101;51.056;7.262;2023-07-20T11:21:36;22.60;70.90
2190;DHT22;1101;51.056;7.262;2023-07-20T11:24:21;22.70;70.80
2190;DHT22;1101;51.056;7.262;2023-07-20T11:26:50;22.70;71.00
2190;DHT22;1101;51.056;7.262;2023-07-20T11:29:20;22.70;70.50
2190;DHT22;1101;51.056;7.262;2023-07-20T11:32:01;22.70;70.60
2190;DHT22;1101;51.056;7.262;2023-07-20T11:34:33;22.80;70.60
2190;DHT22;1101;51.056;7.262;2023-07-20T11:37:01;22.90;69.80
2190;DHT22;1101;51.056;7.262;2023-07-20T11:39:33;22.90;70.20
2190;DHT22;1101;51.056;7.262;2023-07-20T11:42:01;22.90;70.00
2190;DHT22;1101;51.056;7.262;2023-07-20T11:44:29;23.00;70.00
2190;DHT22;1101;51.056;7.262;2023-07-20T11:47:02;23.00;70.10
2190;DHT22;1101;51.056;7.262;2023-07-20T11:49:35;23.00;69.80
2190;DHT22;1101;51.056;7.262;2023-07-20T11:52:04;23.00;69.20
2190;DHT22;1101;51.056;7.262;2023-07-20T11:54:32;22.80;68.70
2190;DHT22;1101;51.056;7.262;2023-07-20T11:57:01;22.60;69.30
2190;DHT22;1101;51.056;7.262;2023-07-20T11:59:29;22.60;69.30
2190;DHT22;1101;51.056;7.262;2023-07-20T12:01:58;22.50;69.30
2190;DHT22;1101;51.056;7.262;2023-07-20T12:04:31;22.60;69.80
2190;DHT22;1101;51.056;7.262;2023-07-20T12:06:59;22.70;70.00
2190;DHT22;1101;51.056;7.262;2023-07-20T12:09:27;22.80;70.40
2190;DHT22;1101;51.056;7.262;2023-07-20T12:12:12;22.90;70.10
2190;DHT22;1101;51.056;7.262;2023-07-20T12:14:40;23.20;70.00
2190;DHT22;1101;51.056;7.262;2023-07-20T12:17:08;23.30;69.90
2190;DHT22;1101;51.056;7.262;2023-07-20T12:19:39;23.40;69.90
2190;DHT22;1101;51.056;7.262;2023-07-20T12:22:07;23.50;69.80
2190;DHT22;1101;51.056;7.262;2023-07-20T12:24:35;23.50;68.90
2190;DHT22;1101;51.056;7.262;2023-07-20T12:27:04;23.50;68.90
2190;DHT22;1101;51.056;7.262;2023-07-20T12:29:32;23.50;69.10
2190;DHT22;1101;51.056;7.262;2023-07-20T12:32:03;23.40;68.70
2190;DHT22;1101;51.056;7.262;2023-07-20T12:34:31;23.30;67.90
2190;DHT22;1101;51.056;7.262;2023-07-20T12:37:03;23.20;67.40
2190;DHT22;1101;51.056;7.262;2023-07-20T12:39:31;23.10;67.50
2190;DHT22;1101;51.056;7.262;2023-07-20T12:41:59;22.90;67.50
2190;DHT22;1101;51.056;7.262;2023-07-20T12:44:27;22.70;67.60
2190;DHT22;1101;51.056;7.262;2023-07-20T12:46:55;22.60;67.90
2190;DHT22;1101;51.056;7.262;2023-07-20T12:49:23;22.60;68.30
2190;DHT22;1101;51.056;7.262;2023-07-20T12:51:51;22.60;68.20
2190;DHT22;1101;51.056;7.262;2023-07-20T12:54:20;22.60;67.60
2190;DHT22;1101;51.056;7.262;2023-07-20T12:56:48;22.60;68.00
2190;DHT22;1101;51.056;7.262;2023-07-20T12:59:18;22.60;68.10
2190;DHT22;1101;51.056;7.262;2023-07-20T13:01:46;22.60;67.50
2190;DHT22;1101;51.056;7.262;2023-07-20T13:04:14;22.60;67.50
2190;DHT22;1101;51.056;7.262;2023-07-20T13:06:42;22.50;67.40
2190;DHT22;1101;51.056;7.262;2023-07-20T13:09:10;22.50;67.80
2190;DHT22;1101;51.056;7.262;2023-07-20T13:11:39;22.50;67.90
2190;DHT22;1101;51.056;7.262;2023-07-20T13:14:07;22.60;68.30
2190;DHT22;1101;51.056;7.262;2023-07-20T13:16:35;22.70;68.60
2190;DHT22;1101;51.056;7.262;2023-07-20T13:19:03;22.80;68.40
2190;DHT22;1101;51.056;7.262;2023-07-20T13:21:31;22.80;67.40
2190;DHT22;1101;51.056;7.262;2023-07-20T13:23:59;22.80;67.90
2190;DHT22;1101;51.056;7.262;2023-07-20T13:26:27;22.80;68.20
2190;DHT22;1101;51.056;7.262;2023-07-20T13:28:56;22.80;67.50
2190;DHT22;1101;51.056;7.262;2023-07-20T13:31:24;22.80;67.70
2190;DHT22;1101;51.056;7.262;2023-07-20T13:33:54;22.90;67.70
2190;DHT22;1101;51.056;7.262;2023-07-20T13:36:25;22.90;67.50
2190;DHT22;1101;51.056;7.262;2023-07-20T13:38:56;22.90;67.50
2190;DHT22;1101;51.056;7.262;2023-07-20T13:41:25;22.90;67.50
2190;DHT22;1101;51.056;7.262;2023-07-20T13:43:56;23.00;67.50
2190;DHT22;1101;51.056;7.262;2023-07-20T13:46:24;23.10;67.60
2190;DHT22;1101;51.056;7.262;2023-07-20T13:48:55;23.20;67.70
2190;DHT22;1101;51.056;7.262;2023-07-20T13:51:24;23.20;67.60
2190;DHT22;1101;51.056;7.262;2023-07-20T13:53:54;23.30;67.70
2190;DHT22;1101;51.056;7.262;2023-07-20T13:56:21;23.30;67.30
2190;DHT22;1101;51.056;7.262;2023-07-20T13:58:49;23.30;67.20
2190;DHT22;1101;51.056;7.262;2023-07-20T14:01:18;23.40;67.30
2190;DHT22;1101;51.056;7.262;2023-07-20T14:03:49;23.40;67.00
2190;DHT22;1101;51.056;7.262;2023-07-20T14:06:20;23.40;66.90
2190;DHT22;1101;51.056;7.262;2023-07-20T14:08:51;23.40;67.00
2190;DHT22;1101;51.056;7.262;2023-07-20T14:11:19;23.40;67.00
2190;DHT22;1101;51.056;7.262;2023-07-20T14:13:50;23.40;67.30
2190;DHT22;1101;51.056;7.262;2023-07-20T14:16:21;23.40;66.80
2190;DHT22;1101;51.056;7.262;2023-07-20T14:18:50;23.40;66.70
2190;DHT22;1101;51.056;7.262;2023-07-20T14:21:19;23.40;66.30
2190;DHT22;1101;51.056;7.262;2023-07-20T14:23:50;23.40;66.80
2190;DHT22;1101;51.056;7.262;2023-07-20T14:26:19;23.40;66.90
2190;DHT22;1101;51.056;7.262;2023-07-20T14:28:49;23.50;66.80
2190;DHT22;1101;51.056;7.262;2023-07-20T14:31:16;23.60;66.60
2190;DHT22;1101;51.056;7.262;2023-07-20T14:33:47;23.60;66.40
2190;DHT22;1101;51.056;7.262;2023-07-20T14:36:16;23.60;66.30
2190;DHT22;1101;51.056;7.262;2023-07-20T14:38:46;23.70;66.30
2190;DHT22;1101;51.056;7.262;2023-07-20T14:41:14;23.70;66.30
2190;DHT22;1101;51.056;7.262;2023-07-20T14:43:42;23.80;66.40
2190;DHT22;1101;51.056;7.262;2023-07-20T14:46:11;24.00;66.60
2190;DHT22;1101;51.056;7.262;2023-07-20T14:48:38;24.10;66.30
2190;DHT22;1101;51.056;7.262;2023-07-20T14:51:08;24.20;66.10
2190;DHT22;1101;51.056;7.262;2023-07-20T14:53:35;24.30;66.20
2190;DHT22;1101;51.056;7.262;2023-07-20T14:56:03;24.50;66.10
2190;DHT22;1101;51.056;7.262;2023-07-20T14:58:31;24.60;66.10
2190;DHT22;1101;51.056;7.262;2023-07-20T15:01:02;24.60;65.60
2190;DHT22;1101;51.056;7.262;2023-07-20T15:03:30;24.50;65.60
2190;DHT22;1101;51.056;7.262;2023-07-20T15:05:58;24.50;64.40
2190;DHT22;1101;51.056;7.262;2023-07-20T15:08:27;24.30;64.30
2190;DHT22;1101;51.056;7.262;2023-07-20T15:10:55;24.30;65.20
2190;DHT22;1101;51.056;7.262;2023-07-20T15:13:23;24.50;65.30
2190;DHT22;1101;51.056;7.262;2023-07-20T15:15:51;24.50;65.10
2190;DHT22;1101;51.056;7.262;2023-07-20T15:18:19;24.60;65.30
2190;DHT22;1101;51.056;7.262;2023-07-20T15:20:59;24.60;64.90
2190;DHT22;1101;51.056;7.262;2023-07-20T15:23:28;24.70;65.00
2190;DHT22;1101;51.056;7.262;2023-07-20T15:25:56;24.80;65.10
2190;DHT22;1101;51.056;7.262;2023-07-20T15:28:24;24.80;64.90
2190;DHT22;1101;51.056;7.262;2023-07-20T15:30:59;25.00;65.10
2190;DHT22;1101;51.056;7.262;2023-07-20T15:33:27;25.10;65.10
2190;DHT22;1101;51.056;7.262;2023-07-20T15:35:54;25.30;64.80
2190;DHT22;1101;51.056;7.262;2023-07-20T15:38:22;25.40;64.60
2190;DHT22;1101;51.056;7.262;2023-07-20T15:40:52;25.50;64.60
2190;DHT22;1101;51.056;7.262;2023-07-20T15:43:20;25.50;64.40
2190;DHT22;1101;51.056;7.262;2023-07-20T15:45:49;25.60;64.20
2190;DHT22;1101;51.056;7.262;2023-07-20T15:48:18;25.70;64.10
2190;DHT22;1101;51.056;7.262;2023-07-20T15:50:46;25.80;63.70
2190;DHT22;1101;51.056;7.262;2023-07-20T15:53:14;25.70;63.30
2190;DHT22;1101;51.056;7.262;2023-07-20T15:55:42;25.60;62.50
2190;DHT22;1101;51.056;7.262;2023-07-20T15:58:11;25.60;63.30
2190;DHT22;1101;51.056;7.262;2023-07-20T16:00:39;25.60;63.60
2190;DHT22;1101;51.056;7.262;2023-07-20T16:03:07;25.60;62.70
2190;DHT22;1101;51.056;7.262;2023-07-20T16:05:37;25.60;62.70
2190;DHT22;1101;51.056;7.262;2023-07-20T16:08:05;25.60;63.00
2190;DHT22;1101;51.056;7.262;2023-07-20T16:10:34;25.60;62.80
2190;DHT22;1101;51.056;7.262;2023-07-20T16:13:02;25.60;62.50
2190;DHT22;1101;51.056;7.262;2023-07-20T16:15:31;25.50;62.40
2190;DHT22;1101;51.056;7.262;2023-07-20T16:18:02;25.50;62.40
2190;DHT22;1101;51.056;7.262;2023-07-20T16:20:30;25.50;62.60
2190;DHT22;1101;51.056;7.262;2023-07-20T16:22:58;25.60;62.70